Sabadell, Spain

2:28 AM CET on February 10, 2016 (GMT +0100)
Bellaterra | | Change Station
CLOSE
Current Station
Personal Weather Station
Location: Sardañola Del Vallés, CATALUñA
Elevation: 512 ft
Nearby Weather Stations

Elev 512 ft 41.50 °N, 2.09 °E | Updated 7 seconds ago

Partly Cloudy
Partly Cloudy
56.5 °F
Feels Like 56.5 °F
N
8.7
Wind Variable Wind from ENE
Gusts 9.8 mph

Today
High -- | Low -- °F
--% Chance of Precip.
Yesterday
High -- | Low -- °F
Precip. -- in
Pressure 29.77 in
Visibility 6.2 miles
Clouds Few 3000 ft
Dew Point 40 °F
Humidity 53%
Rainfall 0.00 in
Snow Depth Not available.
7:54 AM 6:18 PM
Waxing Crescent, 3% visible
METAR LEBL 100100Z 23013KT 9999 FEW030 15/06 Q1008 NOSIG
Pressure 29.77 in
Visibility 6.2 miles
Clouds Few 3000 ft
Dew Point 40 °F
Humidity 53%
Rainfall 0.00 in
Snow Depth Not available.
7:54 AM 6:18 PM
Waxing Crescent, 3% visible
METAR LEBL 100100Z 23013KT 9999 FEW030 15/06 Q1008 NOSIG

10-Day Weather Forecast

Almanac

Astronomy

Feb. 10, 2016 Rise Set
Actual Time
Civil Twilight
Nautical Twilight
Astronomical Twilight
Moon
Length of Visible Light
Length of Day
Tomorrow will be .
, % of the Moon is Illuminated

Today's Extremes

Country Highs Country Lows

Community

WunderPhotos

Upload Photos

1,891,758 photos uploaded!

WunderBlog® & News

Nearby

Air Quality

  Air Quality AQ Index Pollutant
Not available.

Snow Depth

Station Depth Elevation

Earthquake Activity

City Distance Mag. Time & Date
Minimum magnitude displayed is 2.5.

Coastal Water Temperatures

Place Temperature

Stations

Nearby Weather Stations

Station Location Temp. Windchill Dew Point Humidity Wind Precip. Elev Updated Type